This is the latest recevied weather packets stored in our database for station/object N5ZKK. If no packets are shown the sender has not sent any weather packets the latest 10 day(s).
| Time | Temp. | Humidity | Pressure | Rain* | Wind** | Luminosity | Snow |
|---|---|---|---|---|---|---|---|
| 1777001995 | 21.67° C | 93% | 1009.6 hPa | 0 mm | - | - | - |
| 1777000195 | 21.67° C | 92% | 1009.8 hPa | 0 mm | - | - | - |
| 1776998395 | 22.22° C | 89% | 1009.5 hPa | 0 mm | - | - | - |
| 1776996595 | 22.78° C | 88% | 1009 hPa | 0 mm | - | - | - |
| 1776994795 | 23.33° C | 85% | 1008.8 hPa | 0 mm | - | - | - |
| 1776992995 | 23.89° C | 84% | 1008.4 hPa | 0 mm | - | - | - |
| 1776991195 | 23.89° C | 82% | 1008.2 hPa | 0 mm | - | - | - |
| 1776989395 | 24.44° C | 81% | 1008 hPa | 0 mm | - | - | - |
| 1776987595 | 24.44° C | 80% | 1008.1 hPa | 0 mm | - | - | - |
| 1776985795 | 25° C | 78% | 1008.1 hPa | 0 mm | - | - | - |
| 1776983995 | 25° C | 78% | 1008 hPa | 0 mm | - | - | - |
| 1776982195 | 25° C | 78% | 1008.1 hPa | 0 mm | - | - | - |
| 1776980395 | 25.56° C | 77% | 1008.2 hPa | 0 mm | - | - | - |
| 1776978595 | 25° C | 79% | 1008.7 hPa | 0 mm | - | - | - |
| 1776976795 | 24.44° C | 80% | 1009.6 hPa | 0 mm | - | - | - |
| 1776974995 | 24.44° C | 81% | 1010 hPa | 0 mm | - | - | - |
| 1776973195 | 24.44° C | 81% | 1010.3 hPa | 0 mm | - | - | - |
| 1776971395 | 23.89° C | 81% | 1010.7 hPa | 0 mm | - | - | - |
| 1776969595 | 23.89° C | 82% | 1011.1 hPa | 0 mm | - | - | - |
| 1776967795 | 23.33° C | 83% | 1011.5 hPa | 0 mm | - | - | - |
| 1776965995 | 23.33° C | 82% | 1012.2 hPa | 0 mm | - | - | - |
| 1776964195 | 22.78° C | 84% | 1012.7 hPa | 0 mm | - | - | - |
| 1776962395 | 22.78° C | 85% | 1012.8 hPa | 0 mm | - | - | - |
| 1776960595 | 22.22° C | 87% | 1012.8 hPa | 0 mm | - | - | - |
| 1776958795 | 21.67° C | 88% | 1013 hPa | 0 mm | - | - | - |
* Rain latest hour (hover to see other rain measurements)
** Current wind speed in m/s (hover to see current wind gust speed)